<?xml version="1.0" encoding="UTF-8" standalone="no" ?>
<gpx xmlns="http://www.topografix.com/GPX/1/1" xmlns:xsi="http://www.w3.org/2001/XMLSchema-instance" xsi:schemaLocation="http://www.topografix.com/GPX/1/1 http://www.topografix.com/GPX/1/1/gpx.xsd" version="1.1" creator="VisuGPX - https://www.visugpx.com">
  <metadata>
    <name>Guerande_Coteaux_13-23km</name>
    <desc><![CDATA[gnerando idor:8655485_13112441_15426717]]></desc>
  </metadata>
  <wpt lat="47.33101" lon="-2.42582">
    <ele>47</ele>
    <name><![CDATA[0000740]]></name>
  </wpt>
  <wpt lat="47.33141" lon="-2.42578">
    <ele>46</ele>
    <name><![CDATA[0000741]]></name>
  </wpt>
  <wpt lat="47.33133" lon="-2.42668">
    <ele>46</ele>
    <name><![CDATA[0000742]]></name>
  </wpt>
  <wpt lat="47.33143" lon="-2.42554">
    <ele>46</ele>
    <name><![CDATA[0000743]]></name>
  </wpt>
  <wpt lat="47.33101" lon="-2.42582">
    <ele>47</ele>
    <name><![CDATA[0000740]]></name>
  </wpt>
  <wpt lat="47.33141" lon="-2.42578">
    <ele>46</ele>
    <name><![CDATA[0000741]]></name>
  </wpt>
  <wpt lat="47.33133" lon="-2.42668">
    <ele>46</ele>
    <name><![CDATA[0000742]]></name>
  </wpt>
  <wpt lat="47.33143" lon="-2.42554">
    <ele>46</ele>
    <name><![CDATA[0000743]]></name>
  </wpt>
  <wpt lat="47.26827" lon="-1.54438">
    <ele>26.6</ele>
    <name><![CDATA[0001501]]></name>
    <desc><![CDATA[<p><br /><h3>Nom: Segment: 1</h3><br />Heure de départ: 12/21/2023 09:39<br/>Heure d'arrivée: 12/21/2023 19:56<br/>Distance: 112,7km (10:17)<br/>Temps déplacement: 07:03<br/>Vitesse moyenne: 10,95 km/h<br/>Vitesse moyenne mouv.: 15,96 km/h<br/>Vitesse Max.: 113,77 km/h<br/>Altitude minimale: 0 m<br/>Altitude maximale: 90 m<br/>Vitesse de montée: 194,2 m/h<br/>Vitesse de descente: -228,9 m/h<br/>Gain d'altitude: 826 m<br/>Perte d'altitude: -843 m<br/>Temps de montée: 04:15<br/>Temps de descente: 03:41<br/></p>]]></desc>
    <type><![CDATA[Point d'arrivée]]></type>
  </wpt>
  <wpt lat="47.33126" lon="-2.42617">
    <ele>46.4</ele>
    <name><![CDATA[0001500]]></name>
  </wpt>
  <wpt lat="47.26827" lon="-1.54438">
    <ele>26.6</ele>
    <name><![CDATA[0001501]]></name>
    <desc><![CDATA[<p><br /><h3>Nom: Segment: 1</h3><br />Heure de départ: 12/21/2023 09:39<br/>Heure d'arrivée: 12/21/2023 19:56<br/>Distance: 112,7km (10:17)<br/>Temps déplacement: 07:03<br/>Vitesse moyenne: 10,95 km/h<br/>Vitesse moyenne mouv.: 15,96 km/h<br/>Vitesse Max.: 113,77 km/h<br/>Altitude minimale: 0 m<br/>Altitude maximale: 90 m<br/>Vitesse de montée: 194,2 m/h<br/>Vitesse de descente: -228,9 m/h<br/>Gain d'altitude: 826 m<br/>Perte d'altitude: -843 m<br/>Temps de montée: 04:15<br/>Temps de descente: 03:41<br/></]]></desc>
  </wpt>
  <trk>
    <name><![CDATA[Guerande_Coteaux_22km-15426717]]></name>
    <extensions>
      <line xmlns="http://www.topografix.com/GPX/gpx_style/0/2">
        <color>008000</color>
        <opacity>0.95</opacity>
        <width>5</width>
      </line>
    </extensions>
    <trkseg>
      <trkpt lat="47.33101" lon="-2.42582">
        <ele>47</ele>
        <time>2023-11-01T20:06:49Z</time>
      </trkpt>
      <trkpt lat="47.33088" lon="-2.42555">
        <ele>47</ele>
        <time>2023-11-01T20:07:19Z</time>
      </trkpt>
      <trkpt lat="47.33082" lon="-2.4253">
        <ele>48</ele>
        <time>2023-11-01T20:07:43Z</time>
      </trkpt>
      <trkpt lat="47.33065" lon="-2.4251">
        <ele>48</ele>
        <time>2023-11-01T20:08:12Z</time>
      </trkpt>
      <trkpt lat="47.33057" lon="-2.4248">
        <ele>48</ele>
        <time>2023-11-01T20:08:41Z</time>
      </trkpt>
      <trkpt lat="47.33045" lon="-2.42457">
        <ele>48</ele>
        <time>2023-11-01T20:09:07Z</time>
      </trkpt>
      <trkpt lat="47.33035" lon="-2.4243">
        <ele>48</ele>
        <time>2023-11-01T20:09:35Z</time>
      </trkpt>
      <trkpt lat="47.33015" lon="-2.42421">
        <ele>48</ele>
        <time>2023-11-01T20:10:03Z</time>
      </trkpt>
      <trkpt lat="47.32999" lon="-2.424">
        <ele>48</ele>
        <time>2023-11-01T20:10:32Z</time>
      </trkpt>
      <trkpt lat="47.32943" lon="-2.4227">
        <ele>47</ele>
        <time>2023-11-01T20:12:51Z</time>
      </trkpt>
      <trkpt lat="47.32931" lon="-2.4225">
        <ele>46</ele>
        <time>2023-11-01T20:13:15Z</time>
      </trkpt>
      <trkpt lat="47.32912" lon="-2.422">
        <ele>45</ele>
        <time>2023-11-01T20:14:07Z</time>
      </trkpt>
      <trkpt lat="47.32896" lon="-2.42185">
        <ele>45</ele>
        <time>2023-11-01T20:14:32Z</time>
      </trkpt>
      <trkpt lat="47.32882" lon="-2.4216">
        <ele>45</ele>
        <time>2023-11-01T20:15:02Z</time>
      </trkpt>
      <trkpt lat="47.32872" lon="-2.42136">
        <ele>45</ele>
        <time>2023-11-01T20:15:27Z</time>
      </trkpt>
      <trkpt lat="47.32847" lon="-2.4206">
        <ele>44</ele>
        <time>2023-11-01T20:16:44Z</time>
      </trkpt>
      <trkpt lat="47.32833" lon="-2.42036">
        <ele>44</ele>
        <time>2023-11-01T20:17:12Z</time>
      </trkpt>
      <trkpt lat="47.32827" lon="-2.4201">
        <ele>43</ele>
        <time>2023-11-01T20:17:37Z</time>
      </trkpt>
      <trkpt lat="47.32808" lon="-2.41997">
        <ele>44</ele>
        <time>2023-11-01T20:18:05Z</time>
      </trkpt>
      <trkpt lat="47.32794" lon="-2.41939">
        <ele>45</ele>
        <time>2023-11-01T20:19:01Z</time>
      </trkpt>
      <trkpt lat="47.32769" lon="-2.41883">
        <ele>47</ele>
        <time>2023-11-01T20:20:01Z</time>
      </trkpt>
      <trkpt lat="47.3275" lon="-2.41833">
        <ele>48</ele>
        <time>2023-11-01T20:20:53Z</time>
      </trkpt>
      <trkpt lat="47.32738" lon="-2.4181">
        <ele>48</ele>
        <time>2023-11-01T20:21:19Z</time>
      </trkpt>
      <trkpt lat="47.32729" lon="-2.4178">
        <ele>48</ele>
        <time>2023-11-01T20:21:49Z</time>
      </trkpt>
      <trkpt lat="47.32747" lon="-2.41771">
        <ele>47</ele>
        <time>2023-11-01T20:22:14Z</time>
      </trkpt>
      <trkpt lat="47.32744" lon="-2.41743">
        <ele>47</ele>
        <time>2023-11-01T20:22:40Z</time>
      </trkpt>
      <trkpt lat="47.32747" lon="-2.41683">
        <ele>45</ele>
        <time>2023-11-01T20:23:34Z</time>
      </trkpt>
      <trkpt lat="47.32754" lon="-2.41629">
        <ele>45</ele>
        <time>2023-11-01T20:24:24Z</time>
      </trkpt>
      <trkpt lat="47.32764" lon="-2.41603">
        <ele>45</ele>
        <time>2023-11-01T20:24:51Z</time>
      </trkpt>
      <trkpt lat="47.32846" lon="-2.41609">
        <ele>43</ele>
        <time>2023-11-01T20:26:41Z</time>
      </trkpt>
      <trkpt lat="47.32864" lon="-2.41615">
        <ele>43</ele>
        <time>2023-11-01T20:27:05Z</time>
      </trkpt>
      <trkpt lat="47.32885" lon="-2.41616">
        <ele>42</ele>
        <time>2023-11-01T20:27:33Z</time>
      </trkpt>
      <trkpt lat="47.32901" lon="-2.41602">
        <ele>41</ele>
        <time>2023-11-01T20:27:58Z</time>
      </trkpt>
      <trkpt lat="47.32907" lon="-2.41576">
        <ele>41</ele>
        <time>2023-11-01T20:28:23Z</time>
      </trkpt>
      <trkpt lat="47.32925" lon="-2.41564">
        <ele>40</ele>
        <time>2023-11-01T20:28:50Z</time>
      </trkpt>
      <trkpt lat="47.32943" lon="-2.4157">
        <ele>39</ele>
        <time>2023-11-01T20:29:14Z</time>
      </trkpt>
      <trkpt lat="47.32954" lon="-2.41549">
        <ele>39</ele>
        <time>2023-11-01T20:29:38Z</time>
      </trkpt>
      <trkpt lat="47.32959" lon="-2.41523">
        <ele>40</ele>
        <time>2023-11-01T20:30:03Z</time>
      </trkpt>
      <trkpt lat="47.32972" lon="-2.41499">
        <ele>39</ele>
        <time>2023-11-01T20:30:30Z</time>
      </trkpt>
      <trkpt lat="47.32977" lon="-2.41441">
        <ele>41</ele>
        <time>2023-11-01T20:31:23Z</time>
      </trkpt>
      <trkpt lat="47.32999" lon="-2.41327">
        <ele>42</ele>
        <time>2023-11-01T20:33:10Z</time>
      </trkpt>
      <trkpt lat="47.33" lon="-2.41259">
        <ele>45</ele>
        <time>2023-11-01T20:34:12Z</time>
      </trkpt>
      <trkpt lat="47.33009" lon="-2.41234">
        <ele>45</ele>
        <time>2023-11-01T20:34:38Z</time>
      </trkpt>
      <trkpt lat="47.33024" lon="-2.41214">
        <ele>45</ele>
        <time>2023-11-01T20:35:05Z</time>
      </trkpt>
      <trkpt lat="47.33046" lon="-2.41164">
        <ele>44</ele>
        <time>2023-11-01T20:35:58Z</time>
      </trkpt>
      <trkpt lat="47.33072" lon="-2.41114">
        <ele>44</ele>
        <time>2023-11-01T20:36:55Z</time>
      </trkpt>
      <trkpt lat="47.33098" lon="-2.41034">
        <ele>43</ele>
        <time>2023-11-01T20:38:16Z</time>
      </trkpt>
      <trkpt lat="47.33128" lon="-2.40953">
        <ele>43</ele>
        <time>2023-11-01T20:39:39Z</time>
      </trkpt>
      <trkpt lat="47.33184" lon="-2.40855">
        <ele>43</ele>
        <time>2023-11-01T20:41:35Z</time>
      </trkpt>
      <trkpt lat="47.332" lon="-2.40833">
        <ele>43</ele>
        <time>2023-11-01T20:42:04Z</time>
      </trkpt>
      <trkpt lat="47.33212" lon="-2.40809">
        <ele>43</ele>
        <time>2023-11-01T20:42:31Z</time>
      </trkpt>
      <trkpt lat="47.33226" lon="-2.40792">
        <ele>42</ele>
        <time>2023-11-01T20:42:55Z</time>
      </trkpt>
      <trkpt lat="47.33233" lon="-2.40767">
        <ele>41</ele>
        <time>2023-11-01T20:43:20Z</time>
      </trkpt>
      <trkpt lat="47.3324" lon="-2.40703">
        <ele>39</ele>
        <time>2023-11-01T20:44:19Z</time>
      </trkpt>
      <trkpt lat="47.33281" lon="-2.40554">
        <ele>36</ele>
        <time>2023-11-01T20:46:44Z</time>
      </trkpt>
      <trkpt lat="47.33307" lon="-2.40504">
        <ele>36</ele>
        <time>2023-11-01T20:47:41Z</time>
      </trkpt>
      <trkpt lat="47.33312" lon="-2.40475">
        <ele>36</ele>
        <time>2023-11-01T20:48:08Z</time>
      </trkpt>
      <trkpt lat="47.33313" lon="-2.40445">
        <ele>37</ele>
        <time>2023-11-01T20:48:35Z</time>
      </trkpt>
      <trkpt lat="47.33318" lon="-2.40411">
        <ele>37</ele>
        <time>2023-11-01T20:49:07Z</time>
      </trkpt>
      <trkpt lat="47.33315" lon="-2.40385">
        <ele>39</ele>
        <time>2023-11-01T20:49:31Z</time>
      </trkpt>
      <trkpt lat="47.33319" lon="-2.40359">
        <ele>40</ele>
        <time>2023-11-01T20:49:55Z</time>
      </trkpt>
      <trkpt lat="47.33328" lon="-2.40333">
        <ele>41</ele>
        <time>2023-11-01T20:50:21Z</time>
      </trkpt>
      <trkpt lat="47.33343" lon="-2.40243">
        <ele>43</ele>
        <time>2023-11-01T20:51:45Z</time>
      </trkpt>
      <trkpt lat="47.33352" lon="-2.4012">
        <ele>43</ele>
        <time>2023-11-01T20:53:37Z</time>
      </trkpt>
      <trkpt lat="47.3336" lon="-2.40052">
        <ele>43</ele>
        <time>2023-11-01T20:54:39Z</time>
      </trkpt>
      <trkpt lat="47.33373" lon="-2.40021">
        <ele>43</ele>
        <time>2023-11-01T20:55:12Z</time>
      </trkpt>
      <trkpt lat="47.33417" lon="-2.39953">
        <ele>41</ele>
        <time>2023-11-01T20:56:37Z</time>
      </trkpt>
      <trkpt lat="47.33432" lon="-2.39925">
        <ele>41</ele>
        <time>2023-11-01T20:57:10Z</time>
      </trkpt>
      <trkpt lat="47.33447" lon="-2.39911">
        <ele>40</ele>
        <time>2023-11-01T20:57:33Z</time>
      </trkpt>
      <trkpt lat="47.33481" lon="-2.39869">
        <ele>39</ele>
        <time>2023-11-01T20:58:32Z</time>
      </trkpt>
      <trkpt lat="47.33495" lon="-2.39844">
        <ele>38</ele>
        <time>2023-11-01T20:59:02Z</time>
      </trkpt>
      <trkpt lat="47.33525" lon="-2.39804">
        <ele>37</ele>
        <time>2023-11-01T20:59:56Z</time>
      </trkpt>
      <trkpt lat="47.33538" lon="-2.39781">
        <ele>37</ele>
        <time>2023-11-01T21:00:23Z</time>
      </trkpt>
      <trkpt lat="47.33586" lon="-2.39725">
        <ele>36</ele>
        <time>2023-11-01T21:01:44Z</time>
      </trkpt>
      <trkpt lat="47.33616" lon="-2.39673">
        <ele>36</ele>
        <time>2023-11-01T21:02:46Z</time>
      </trkpt>
      <trkpt lat="47.33632" lon="-2.39652">
        <ele>36</ele>
        <time>2023-11-01T21:03:15Z</time>
      </trkpt>
      <trkpt lat="47.33651" lon="-2.39599">
        <ele>37</ele>
        <time>2023-11-01T21:04:09Z</time>
      </trkpt>
      <trkpt lat="47.33662" lon="-2.39575">
        <ele>38</ele>
        <time>2023-11-01T21:04:35Z</time>
      </trkpt>
      <trkpt lat="47.33695" lon="-2.39461">
        <ele>39</ele>
        <time>2023-11-01T21:06:27Z</time>
      </trkpt>
      <trkpt lat="47.33707" lon="-2.39399">
        <ele>38</ele>
        <time>2023-11-01T21:07:26Z</time>
      </trkpt>
      <trkpt lat="47.3371" lon="-2.39341">
        <ele>37</ele>
        <time>2023-11-01T21:08:18Z</time>
      </trkpt>
      <trkpt lat="47.33716" lon="-2.39311">
        <ele>36</ele>
        <time>2023-11-01T21:08:46Z</time>
      </trkpt>
      <trkpt lat="47.33735" lon="-2.39308">
        <ele>36</ele>
        <time>2023-11-01T21:09:12Z</time>
      </trkpt>
      <trkpt lat="47.33755" lon="-2.39301">
        <ele>35</ele>
        <time>2023-11-01T21:09:39Z</time>
      </trkpt>
      <trkpt lat="47.33816" lon="-2.39287">
        <ele>33</ele>
        <time>2023-11-01T21:11:02Z</time>
      </trkpt>
      <trkpt lat="47.3386" lon="-2.39283">
        <ele>33</ele>
        <time>2023-11-01T21:12:01Z</time>
      </trkpt>
      <trkpt lat="47.33901" lon="-2.39276">
        <ele>33</ele>
        <time>2023-11-01T21:12:56Z</time>
      </trkpt>
      <trkpt lat="47.33962" lon="-2.3926">
        <ele>31</ele>
        <time>2023-11-01T21:14:18Z</time>
      </trkpt>
      <trkpt lat="47.34026" lon="-2.39252">
        <ele>30</ele>
        <time>2023-11-01T21:15:44Z</time>
      </trkpt>
      <trkpt lat="47.34046" lon="-2.39252">
        <ele>30</ele>
        <time>2023-11-01T21:16:11Z</time>
      </trkpt>
      <trkpt lat="47.34063" lon="-2.39266">
        <ele>30</ele>
        <time>2023-11-01T21:16:37Z</time>
      </trkpt>
      <trkpt lat="47.3408" lon="-2.39351">
        <ele>31</ele>
        <time>2023-11-01T21:17:57Z</time>
      </trkpt>
      <trkpt lat="47.34088" lon="-2.39406">
        <ele>32</ele>
        <time>2023-11-01T21:18:48Z</time>
      </trkpt>
      <trkpt lat="47.34096" lon="-2.39431">
        <ele>31</ele>
        <time>2023-11-01T21:19:13Z</time>
      </trkpt>
      <trkpt lat="47.34114" lon="-2.39426">
        <ele>31</ele>
        <time>2023-11-01T21:19:37Z</time>
      </trkpt>
      <trkpt lat="47.34133" lon="-2.39416">
        <ele>31</ele>
        <time>2023-11-01T21:20:04Z</time>
      </trkpt>
      <trkpt lat="47.34186" lon="-2.39377">
        <ele>30</ele>
        <time>2023-11-01T21:21:23Z</time>
      </trkpt>
      <trkpt lat="47.34207" lon="-2.3937">
        <ele>30</ele>
        <time>2023-11-01T21:21:52Z</time>
      </trkpt>
      <trkpt lat="47.34226" lon="-2.39355">
        <ele>30</ele>
        <time>2023-11-01T21:22:21Z</time>
      </trkpt>
      <trkpt lat="47.34245" lon="-2.39344">
        <ele>30</ele>
        <time>2023-11-01T21:22:48Z</time>
      </trkpt>
      <trkpt lat="47.34263" lon="-2.39328">
        <ele>29</ele>
        <time>2023-11-01T21:23:16Z</time>
      </trkpt>
      <trkpt lat="47.34299" lon="-2.39312">
        <ele>28</ele>
        <time>2023-11-01T21:24:06Z</time>
      </trkpt>
      <trkpt lat="47.34319" lon="-2.39297">
        <ele>27</ele>
        <time>2023-11-01T21:24:36Z</time>
      </trkpt>
      <trkpt lat="47.34357" lon="-2.39281">
        <ele>26</ele>
        <time>2023-11-01T21:25:29Z</time>
      </trkpt>
      <trkpt lat="47.34376" lon="-2.3927">
        <ele>26</ele>
        <time>2023-11-01T21:25:56Z</time>
      </trkpt>
      <trkpt lat="47.3446" lon="-2.39236">
        <ele>22</ele>
        <time>2023-11-01T21:27:52Z</time>
      </trkpt>
      <trkpt lat="47.34478" lon="-2.39234">
        <ele>21</ele>
        <time>2023-11-01T21:28:16Z</time>
      </trkpt>
      <trkpt lat="47.345" lon="-2.39227">
        <ele>20</ele>
        <time>2023-11-01T21:28:46Z</time>
      </trkpt>
      <trkpt lat="47.34561" lon="-2.39231">
        <ele>18</ele>
        <time>2023-11-01T21:30:08Z</time>
      </trkpt>
      <trkpt lat="47.34581" lon="-2.3924">
        <ele>18</ele>
        <time>2023-11-01T21:30:36Z</time>
      </trkpt>
      <trkpt lat="47.34616" lon="-2.39267">
        <ele>17</ele>
        <time>2023-11-01T21:31:28Z</time>
      </trkpt>
      <trkpt lat="47.34635" lon="-2.39278">
        <ele>17</ele>
        <time>2023-11-01T21:31:56Z</time>
      </trkpt>
      <trkpt lat="47.3465" lon="-2.39293">
        <ele>17</ele>
        <time>2023-11-01T21:32:20Z</time>
      </trkpt>
      <trkpt lat="47.34665" lon="-2.39314">
        <ele>17</ele>
        <time>2023-11-01T21:32:47Z</time>
      </trkpt>
      <trkpt lat="47.34687" lon="-2.39362">
        <ele>17</ele>
        <time>2023-11-01T21:33:40Z</time>
      </trkpt>
      <trkpt lat="47.34693" lon="-2.39389">
        <ele>18</ele>
        <time>2023-11-01T21:34:06Z</time>
      </trkpt>
      <trkpt lat="47.34712" lon="-2.39445">
        <ele>18</ele>
        <time>2023-11-01T21:35:02Z</time>
      </trkpt>
      <trkpt lat="47.34719" lon="-2.39504">
        <ele>18</ele>
        <time>2023-11-01T21:35:56Z</time>
      </trkpt>
      <trkpt lat="47.34717" lon="-2.39598">
        <ele>20</ele>
        <time>2023-11-01T21:37:21Z</time>
      </trkpt>
      <trkpt lat="47.34702" lon="-2.3962">
        <ele>20</ele>
        <time>2023-11-01T21:37:50Z</time>
      </trkpt>
      <trkpt lat="47.3469" lon="-2.39645">
        <ele>20</ele>
        <time>2023-11-01T21:38:17Z</time>
      </trkpt>
      <trkpt lat="47.3468" lon="-2.39729">
        <ele>21</ele>
        <time>2023-11-01T21:39:34Z</time>
      </trkpt>
      <trkpt lat="47.34682" lon="-2.39756">
        <ele>21</ele>
        <time>2023-11-01T21:39:59Z</time>
      </trkpt>
      <trkpt lat="47.34678" lon="-2.39783">
        <ele>22</ele>
        <time>2023-11-01T21:40:24Z</time>
      </trkpt>
      <trkpt lat="47.34667" lon="-2.39806">
        <ele>22</ele>
        <time>2023-11-01T21:40:49Z</time>
      </trkpt>
      <trkpt lat="47.34649" lon="-2.3982">
        <ele>23</ele>
        <time>2023-11-01T21:41:17Z</time>
      </trkpt>
      <trkpt lat="47.34619" lon="-2.3986">
        <ele>23</ele>
        <time>2023-11-01T21:42:10Z</time>
      </trkpt>
      <trkpt lat="47.34606" lon="-2.39863">
        <ele>23</ele>
        <time>2023-11-01T21:42:28Z</time>
      </trkpt>
      <trkpt lat="47.34613" lon="-2.39893">
        <ele>23</ele>
        <time>2023-11-01T21:42:57Z</time>
      </trkpt>
      <trkpt lat="47.34606" lon="-2.39918">
        <ele>24</ele>
        <time>2023-11-01T21:43:21Z</time>
      </trkpt>
      <trkpt lat="47.34607" lon="-2.39951">
        <ele>23</ele>
        <time>2023-11-01T21:43:51Z</time>
      </trkpt>
      <trkpt lat="47.34593" lon="-2.39975">
        <ele>23</ele>
        <time>2023-11-01T21:44:20Z</time>
      </trkpt>
      <trkpt lat="47.34596" lon="-2.40004">
        <ele>23</ele>
        <time>2023-11-01T21:44:46Z</time>
      </trkpt>
      <trkpt lat="47.3461" lon="-2.40023">
        <ele>23</ele>
        <time>2023-11-01T21:45:12Z</time>
      </trkpt>
      <trkpt lat="47.34634" lon="-2.40067">
        <ele>23</ele>
        <time>2023-11-01T21:46:03Z</time>
      </trkpt>
      <trkpt lat="47.34665" lon="-2.40108">
        <ele>22</ele>
        <time>2023-11-01T21:46:58Z</time>
      </trkpt>
      <trkpt lat="47.34684" lon="-2.40117">
        <ele>22</ele>
        <time>2023-11-01T21:47:25Z</time>
      </trkpt>
      <trkpt lat="47.34705" lon="-2.40122">
        <ele>22</ele>
        <time>2023-11-01T21:47:53Z</time>
      </trkpt>
      <trkpt lat="47.34725" lon="-2.40131">
        <ele>22</ele>
        <time>2023-11-01T21:48:21Z</time>
      </trkpt>
      <trkpt lat="47.34768" lon="-2.40192">
        <ele>23</ele>
        <time>2023-11-01T21:49:41Z</time>
      </trkpt>
      <trkpt lat="47.34805" lon="-2.40223">
        <ele>22</ele>
        <time>2023-11-01T21:50:38Z</time>
      </trkpt>
      <trkpt lat="47.34853" lon="-2.40325">
        <ele>19</ele>
        <time>2023-11-01T21:52:30Z</time>
      </trkpt>
      <trkpt lat="47.34861" lon="-2.40354">
        <ele>18</ele>
        <time>2023-11-01T21:52:58Z</time>
      </trkpt>
      <trkpt lat="47.34864" lon="-2.40382">
        <ele>18</ele>
        <time>2023-11-01T21:53:24Z</time>
      </trkpt>
      <trkpt lat="47.3488" lon="-2.40464">
        <ele>16</ele>
        <time>2023-11-01T21:54:41Z</time>
      </trkpt>
      <trkpt lat="47.34888" lon="-2.40523">
        <ele>15</ele>
        <time>2023-11-01T21:55:35Z</time>
      </trkpt>
      <trkpt lat="47.34889" lon="-2.40555">
        <ele>15</ele>
        <time>2023-11-01T21:56:04Z</time>
      </trkpt>
      <trkpt lat="47.34874" lon="-2.40579">
        <ele>15</ele>
        <time>2023-11-01T21:56:34Z</time>
      </trkpt>
      <trkpt lat="47.34857" lon="-2.40595">
        <ele>15</ele>
        <time>2023-11-01T21:57:01Z</time>
      </trkpt>
      <trkpt lat="47.34842" lon="-2.40617">
        <ele>15</ele>
        <time>2023-11-01T21:57:29Z</time>
      </trkpt>
      <trkpt lat="47.34834" lon="-2.40643">
        <ele>16</ele>
        <time>2023-11-01T21:57:55Z</time>
      </trkpt>
      <trkpt lat="47.34827" lon="-2.40671">
        <ele>16</ele>
        <time>2023-11-01T21:58:22Z</time>
      </trkpt>
      <trkpt lat="47.34823" lon="-2.40702">
        <ele>17</ele>
        <time>2023-11-01T21:58:50Z</time>
      </trkpt>
      <trkpt lat="47.34829" lon="-2.40757">
        <ele>18</ele>
        <time>2023-11-01T21:59:41Z</time>
      </trkpt>
      <trkpt lat="47.34848" lon="-2.4077">
        <ele>19</ele>
        <time>2023-11-01T22:00:09Z</time>
      </trkpt>
      <trkpt lat="47.3487" lon="-2.40768">
        <ele>18</ele>
        <time>2023-11-01T22:00:38Z</time>
      </trkpt>
      <trkpt lat="47.34889" lon="-2.40776">
        <ele>18</ele>
        <time>2023-11-01T22:01:04Z</time>
      </trkpt>
      <trkpt lat="47.34903" lon="-2.40794">
        <ele>19</ele>
        <time>2023-11-01T22:01:29Z</time>
      </trkpt>
      <trkpt lat="47.34915" lon="-2.40816">
        <ele>19</ele>
        <time>2023-11-01T22:01:55Z</time>
      </trkpt>
      <trkpt lat="47.34935" lon="-2.40864">
        <ele>20</ele>
        <time>2023-11-01T22:02:46Z</time>
      </trkpt>
      <trkpt lat="47.34941" lon="-2.4089">
        <ele>21</ele>
        <time>2023-11-01T22:03:10Z</time>
      </trkpt>
      <trkpt lat="47.34943" lon="-2.40918">
        <ele>21</ele>
        <time>2023-11-01T22:03:36Z</time>
      </trkpt>
      <trkpt lat="47.34945" lon="-2.40975">
        <ele>22</ele>
        <time>2023-11-01T22:04:27Z</time>
      </trkpt>
      <trkpt lat="47.34937" lon="-2.41032">
        <ele>22</ele>
        <time>2023-11-01T22:05:20Z</time>
      </trkpt>
      <trkpt lat="47.34943" lon="-2.41065">
        <ele>20</ele>
        <time>2023-11-01T22:05:51Z</time>
      </trkpt>
      <trkpt lat="47.34957" lon="-2.41116">
        <ele>17</ele>
        <time>2023-11-01T22:06:41Z</time>
      </trkpt>
      <trkpt lat="47.34991" lon="-2.41186">
        <ele>16</ele>
        <time>2023-11-01T22:07:59Z</time>
      </trkpt>
      <trkpt lat="47.34999" lon="-2.41214">
        <ele>16</ele>
        <time>2023-11-01T22:08:26Z</time>
      </trkpt>
      <trkpt lat="47.35012" lon="-2.41238">
        <ele>17</ele>
        <time>2023-11-01T22:08:54Z</time>
      </trkpt>
      <trkpt lat="47.3505" lon="-2.41342">
        <ele>19</ele>
        <time>2023-11-01T22:10:41Z</time>
      </trkpt>
      <trkpt lat="47.35072" lon="-2.41386">
        <ele>17</ele>
        <time>2023-11-01T22:11:30Z</time>
      </trkpt>
      <trkpt lat="47.3507" lon="-2.41414">
        <ele>17</ele>
        <time>2023-11-01T22:11:56Z</time>
      </trkpt>
      <trkpt lat="47.35054" lon="-2.41427">
        <ele>17</ele>
        <time>2023-11-01T22:12:20Z</time>
      </trkpt>
      <trkpt lat="47.35035" lon="-2.41437">
        <ele>18</ele>
        <time>2023-11-01T22:12:47Z</time>
      </trkpt>
      <trkpt lat="47.34978" lon="-2.4146">
        <ele>20</ele>
        <time>2023-11-01T22:14:06Z</time>
      </trkpt>
      <trkpt lat="47.34932" lon="-2.41474">
        <ele>20</ele>
        <time>2023-11-01T22:15:08Z</time>
      </trkpt>
      <trkpt lat="47.34912" lon="-2.41484">
        <ele>19</ele>
        <time>2023-11-01T22:15:37Z</time>
      </trkpt>
      <trkpt lat="47.3489" lon="-2.41486">
        <ele>20</ele>
        <time>2023-11-01T22:16:06Z</time>
      </trkpt>
      <trkpt lat="47.3485" lon="-2.41502">
        <ele>21</ele>
        <time>2023-11-01T22:17:01Z</time>
      </trkpt>
      <trkpt lat="47.34785" lon="-2.41515">
        <ele>21</ele>
        <time>2023-11-01T22:18:29Z</time>
      </trkpt>
      <trkpt lat="47.34767" lon="-2.41523">
        <ele>21</ele>
        <time>2023-11-01T22:18:54Z</time>
      </trkpt>
      <trkpt lat="47.34747" lon="-2.41527">
        <ele>20</ele>
        <time>2023-11-01T22:19:21Z</time>
      </trkpt>
      <trkpt lat="47.34632" lon="-2.41563">
        <ele>20</ele>
        <time>2023-11-01T22:21:58Z</time>
      </trkpt>
      <trkpt lat="47.34609" lon="-2.41575">
        <ele>21</ele>
        <time>2023-11-01T22:22:30Z</time>
      </trkpt>
      <trkpt lat="47.3455" lon="-2.41595">
        <ele>22</ele>
        <time>2023-11-01T22:23:51Z</time>
      </trkpt>
      <trkpt lat="47.34529" lon="-2.41606">
        <ele>22</ele>
        <time>2023-11-01T22:24:21Z</time>
      </trkpt>
      <trkpt lat="47.34488" lon="-2.41621">
        <ele>24</ele>
        <time>2023-11-01T22:25:17Z</time>
      </trkpt>
      <trkpt lat="47.34469" lon="-2.41633">
        <ele>24</ele>
        <time>2023-11-01T22:25:45Z</time>
      </trkpt>
      <trkpt lat="47.34451" lon="-2.41649">
        <ele>25</ele>
        <time>2023-11-01T22:26:13Z</time>
      </trkpt>
      <trkpt lat="47.34423" lon="-2.41691">
        <ele>26</ele>
        <time>2023-11-01T22:27:06Z</time>
      </trkpt>
      <trkpt lat="47.34381" lon="-2.41715">
        <ele>27</ele>
        <time>2023-11-01T22:28:06Z</time>
      </trkpt>
      <trkpt lat="47.34343" lon="-2.41741">
        <ele>28</ele>
        <time>2023-11-01T22:29:02Z</time>
      </trkpt>
      <trkpt lat="47.34324" lon="-2.41747">
        <ele>28</ele>
        <time>2023-11-01T22:29:28Z</time>
      </trkpt>
      <trkpt lat="47.34263" lon="-2.41779">
        <ele>29</ele>
        <time>2023-11-01T22:30:54Z</time>
      </trkpt>
      <trkpt lat="47.34244" lon="-2.41786">
        <ele>29</ele>
        <time>2023-11-01T22:31:21Z</time>
      </trkpt>
      <trkpt lat="47.34227" lon="-2.41768">
        <ele>29</ele>
        <time>2023-11-01T22:31:48Z</time>
      </trkpt>
      <trkpt lat="47.34217" lon="-2.41742">
        <ele>29</ele>
        <time>2023-11-01T22:32:16Z</time>
      </trkpt>
      <trkpt lat="47.34212" lon="-2.41713">
        <ele>28</ele>
        <time>2023-11-01T22:32:43Z</time>
      </trkpt>
      <trkpt lat="47.34197" lon="-2.41693">
        <ele>28</ele>
        <time>2023-11-01T22:33:10Z</time>
      </trkpt>
      <trkpt lat="47.34181" lon="-2.41711">
        <ele>29</ele>
        <time>2023-11-01T22:33:36Z</time>
      </trkpt>
      <trkpt lat="47.34079" lon="-2.41805">
        <ele>32</ele>
        <time>2023-11-01T22:36:17Z</time>
      </trkpt>
      <trkpt lat="47.34048" lon="-2.41846">
        <ele>32</ele>
        <time>2023-11-01T22:37:12Z</time>
      </trkpt>
      <trkpt lat="47.33994" lon="-2.41934">
        <ele>33</ele>
        <time>2023-11-01T22:39:00Z</time>
      </trkpt>
      <trkpt lat="47.33976" lon="-2.41952">
        <ele>34</ele>
        <time>2023-11-01T22:39:29Z</time>
      </trkpt>
      <trkpt lat="47.33961" lon="-2.41977">
        <ele>36</ele>
        <time>2023-11-01T22:39:59Z</time>
      </trkpt>
      <trkpt lat="47.33946" lon="-2.41993">
        <ele>37</ele>
        <time>2023-11-01T22:40:24Z</time>
      </trkpt>
      <trkpt lat="47.33932" lon="-2.42013">
        <ele>38</ele>
        <time>2023-11-01T22:40:50Z</time>
      </trkpt>
      <trkpt lat="47.33882" lon="-2.42052">
        <ele>38</ele>
        <time>2023-11-01T22:42:05Z</time>
      </trkpt>
      <trkpt lat="47.33862" lon="-2.42063">
        <ele>38</ele>
        <time>2023-11-01T22:42:34Z</time>
      </trkpt>
      <trkpt lat="47.33844" lon="-2.42079">
        <ele>37</ele>
        <time>2023-11-01T22:43:02Z</time>
      </trkpt>
      <trkpt lat="47.33825" lon="-2.42089">
        <ele>37</ele>
        <time>2023-11-01T22:43:29Z</time>
      </trkpt>
      <trkpt lat="47.3382" lon="-2.42118">
        <ele>37</ele>
        <time>2023-11-01T22:43:56Z</time>
      </trkpt>
      <trkpt lat="47.33838" lon="-2.42261">
        <ele>38</ele>
        <time>2023-11-01T22:46:07Z</time>
      </trkpt>
      <trkpt lat="47.3385" lon="-2.42319">
        <ele>41</ele>
        <time>2023-11-01T22:47:02Z</time>
      </trkpt>
      <trkpt lat="47.33856" lon="-2.42377">
        <ele>41</ele>
        <time>2023-11-01T22:47:55Z</time>
      </trkpt>
      <trkpt lat="47.3385" lon="-2.42407">
        <ele>40</ele>
        <time>2023-11-01T22:48:23Z</time>
      </trkpt>
      <trkpt lat="47.33844" lon="-2.42471">
        <ele>39</ele>
        <time>2023-11-01T22:49:22Z</time>
      </trkpt>
      <trkpt lat="47.33835" lon="-2.42494">
        <ele>38</ele>
        <time>2023-11-01T22:49:46Z</time>
      </trkpt>
      <trkpt lat="47.33832" lon="-2.4252">
        <ele>39</ele>
        <time>2023-11-01T22:50:10Z</time>
      </trkpt>
      <trkpt lat="47.33817" lon="-2.42576">
        <ele>41</ele>
        <time>2023-11-01T22:51:04Z</time>
      </trkpt>
      <trkpt lat="47.33817" lon="-2.42609">
        <ele>41</ele>
        <time>2023-11-01T22:51:34Z</time>
      </trkpt>
      <trkpt lat="47.338" lon="-2.42666">
        <ele>42</ele>
        <time>2023-11-01T22:52:30Z</time>
      </trkpt>
      <trkpt lat="47.33789" lon="-2.42722">
        <ele>40</ele>
        <time>2023-11-01T22:53:23Z</time>
      </trkpt>
      <trkpt lat="47.33771" lon="-2.42736">
        <ele>40</ele>
        <time>2023-11-01T22:53:50Z</time>
      </trkpt>
      <trkpt lat="47.33751" lon="-2.42741">
        <ele>39</ele>
        <time>2023-11-01T22:54:17Z</time>
      </trkpt>
      <trkpt lat="47.33732" lon="-2.42742">
        <ele>40</ele>
        <time>2023-11-01T22:54:43Z</time>
      </trkpt>
      <trkpt lat="47.33712" lon="-2.42733">
        <ele>40</ele>
        <time>2023-11-01T22:55:11Z</time>
      </trkpt>
      <trkpt lat="47.33673" lon="-2.42725">
        <ele>41</ele>
        <time>2023-11-01T22:56:03Z</time>
      </trkpt>
      <trkpt lat="47.33652" lon="-2.42725">
        <ele>41</ele>
        <time>2023-11-01T22:56:31Z</time>
      </trkpt>
      <trkpt lat="47.3363" lon="-2.42731">
        <ele>41</ele>
        <time>2023-11-01T22:57:01Z</time>
      </trkpt>
      <trkpt lat="47.3361" lon="-2.42732">
        <ele>41</ele>
        <time>2023-11-01T22:57:28Z</time>
      </trkpt>
      <trkpt lat="47.3359" lon="-2.42739">
        <ele>41</ele>
        <time>2023-11-01T22:57:55Z</time>
      </trkpt>
      <trkpt lat="47.3357" lon="-2.42734">
        <ele>41</ele>
        <time>2023-11-01T22:58:22Z</time>
      </trkpt>
      <trkpt lat="47.33582" lon="-2.42678">
        <ele>42</ele>
        <time>2023-11-01T22:59:15Z</time>
      </trkpt>
      <trkpt lat="47.33585" lon="-2.42649">
        <ele>42</ele>
        <time>2023-11-01T22:59:42Z</time>
      </trkpt>
      <trkpt lat="47.33583" lon="-2.4262">
        <ele>42</ele>
        <time>2023-11-01T23:00:08Z</time>
      </trkpt>
      <trkpt lat="47.3357" lon="-2.42535">
        <ele>42</ele>
        <time>2023-11-01T23:01:27Z</time>
      </trkpt>
      <trkpt lat="47.33559" lon="-2.42514">
        <ele>43</ele>
        <time>2023-11-01T23:01:51Z</time>
      </trkpt>
      <trkpt lat="47.3354" lon="-2.42501">
        <ele>44</ele>
        <time>2023-11-01T23:02:19Z</time>
      </trkpt>
      <trkpt lat="47.335" lon="-2.42486">
        <ele>45</ele>
        <time>2023-11-01T23:03:14Z</time>
      </trkpt>
      <trkpt lat="47.33483" lon="-2.42473">
        <ele>46</ele>
        <time>2023-11-01T23:03:40Z</time>
      </trkpt>
      <trkpt lat="47.33469" lon="-2.42453">
        <ele>46</ele>
        <time>2023-11-01T23:04:06Z</time>
      </trkpt>
      <trkpt lat="47.33433" lon="-2.42438">
        <ele>48</ele>
        <time>2023-11-01T23:04:55Z</time>
      </trkpt>
      <trkpt lat="47.3341" lon="-2.42433">
        <ele>49</ele>
        <time>2023-11-01T23:05:26Z</time>
      </trkpt>
      <trkpt lat="47.33388" lon="-2.42432">
        <ele>49</ele>
        <time>2023-11-01T23:05:56Z</time>
      </trkpt>
      <trkpt lat="47.3337" lon="-2.42419">
        <ele>48</ele>
        <time>2023-11-01T23:06:23Z</time>
      </trkpt>
      <trkpt lat="47.33352" lon="-2.42421">
        <ele>48</ele>
        <time>2023-11-01T23:06:47Z</time>
      </trkpt>
      <trkpt lat="47.33314" lon="-2.42443">
        <ele>48</ele>
        <time>2023-11-01T23:07:41Z</time>
      </trkpt>
      <trkpt lat="47.33277" lon="-2.42468">
        <ele>47</ele>
        <time>2023-11-01T23:08:35Z</time>
      </trkpt>
      <trkpt lat="47.33258" lon="-2.42466">
        <ele>47</ele>
        <time>2023-11-01T23:09:01Z</time>
      </trkpt>
      <trkpt lat="47.33245" lon="-2.42486">
        <ele>47</ele>
        <time>2023-11-01T23:09:26Z</time>
      </trkpt>
      <trkpt lat="47.33227" lon="-2.425">
        <ele>47</ele>
        <time>2023-11-01T23:09:53Z</time>
      </trkpt>
      <trkpt lat="47.33189" lon="-2.42522">
        <ele>46</ele>
        <time>2023-11-01T23:10:48Z</time>
      </trkpt>
      <trkpt lat="47.33173" lon="-2.42536">
        <ele>46</ele>
        <time>2023-11-01T23:11:12Z</time>
      </trkpt>
      <trkpt lat="47.33141" lon="-2.42578">
        <ele>46</ele>
        <time>2023-11-01T23:12:10Z</time>
      </trkpt>
      <trkpt lat="47.33133" lon="-2.42668">
        <ele>46</ele>
        <time>2023-11-01T23:13:32Z</time>
      </trkpt>
      <trkpt lat="47.33146" lon="-2.42689">
        <ele>46</ele>
        <time>2023-11-01T23:13:57Z</time>
      </trkpt>
      <trkpt lat="47.33165" lon="-2.42745">
        <ele>47</ele>
        <time>2023-11-01T23:14:54Z</time>
      </trkpt>
      <trkpt lat="47.3319" lon="-2.4279">
        <ele>47</ele>
        <time>2023-11-01T23:15:47Z</time>
      </trkpt>
      <trkpt lat="47.33208" lon="-2.42849">
        <ele>47</ele>
        <time>2023-11-01T23:16:45Z</time>
      </trkpt>
      <trkpt lat="47.33219" lon="-2.42871">
        <ele>46</ele>
        <time>2023-11-01T23:17:10Z</time>
      </trkpt>
      <trkpt lat="47.33237" lon="-2.42876">
        <ele>46</ele>
        <time>2023-11-01T23:17:34Z</time>
      </trkpt>
      <trkpt lat="47.33259" lon="-2.42875">
        <ele>45</ele>
        <time>2023-11-01T23:18:04Z</time>
      </trkpt>
      <trkpt lat="47.33301" lon="-2.42868">
        <ele>44</ele>
        <time>2023-11-01T23:19:00Z</time>
      </trkpt>
      <trkpt lat="47.33339" lon="-2.42865">
        <ele>44</ele>
        <time>2023-11-01T23:19:51Z</time>
      </trkpt>
      <trkpt lat="47.33359" lon="-2.42866">
        <ele>43</ele>
        <time>2023-11-01T23:20:18Z</time>
      </trkpt>
      <trkpt lat="47.33378" lon="-2.42862">
        <ele>43</ele>
        <time>2023-11-01T23:20:43Z</time>
      </trkpt>
      <trkpt lat="47.33399" lon="-2.42861">
        <ele>43</ele>
        <time>2023-11-01T23:21:11Z</time>
      </trkpt>
      <trkpt lat="47.3342" lon="-2.42874">
        <ele>43</ele>
        <time>2023-11-01T23:21:42Z</time>
      </trkpt>
      <trkpt lat="47.33481" lon="-2.42864">
        <ele>42</ele>
        <time>2023-11-01T23:23:04Z</time>
      </trkpt>
      <trkpt lat="47.33498" lon="-2.42856">
        <ele>41</ele>
        <time>2023-11-01T23:23:27Z</time>
      </trkpt>
      <trkpt lat="47.33517" lon="-2.4286">
        <ele>41</ele>
        <time>2023-11-01T23:23:53Z</time>
      </trkpt>
      <trkpt lat="47.33533" lon="-2.42873">
        <ele>41</ele>
        <time>2023-11-01T23:24:17Z</time>
      </trkpt>
      <trkpt lat="47.33508" lon="-2.43089">
        <ele>43</ele>
        <time>2023-11-01T23:27:36Z</time>
      </trkpt>
      <trkpt lat="47.33499" lon="-2.4312">
        <ele>43</ele>
        <time>2023-11-01T23:28:06Z</time>
      </trkpt>
      <trkpt lat="47.33469" lon="-2.43161">
        <ele>43</ele>
        <time>2023-11-01T23:29:01Z</time>
      </trkpt>
      <trkpt lat="47.33459" lon="-2.43182">
        <ele>44</ele>
        <time>2023-11-01T23:29:24Z</time>
      </trkpt>
      <trkpt lat="47.33445" lon="-2.43238">
        <ele>45</ele>
        <time>2023-11-01T23:30:18Z</time>
      </trkpt>
      <trkpt lat="47.33429" lon="-2.43253">
        <ele>45</ele>
        <time>2023-11-01T23:30:43Z</time>
      </trkpt>
      <trkpt lat="47.33433" lon="-2.43279">
        <ele>45</ele>
        <time>2023-11-01T23:31:07Z</time>
      </trkpt>
      <trkpt lat="47.33427" lon="-2.4331">
        <ele>44</ele>
        <time>2023-11-01T23:31:36Z</time>
      </trkpt>
      <trkpt lat="47.3341" lon="-2.43363">
        <ele>45</ele>
        <time>2023-11-01T23:32:29Z</time>
      </trkpt>
      <trkpt lat="47.33398" lon="-2.43417">
        <ele>46</ele>
        <time>2023-11-01T23:33:21Z</time>
      </trkpt>
      <trkpt lat="47.33406" lon="-2.43476">
        <ele>46</ele>
        <time>2023-11-01T23:34:15Z</time>
      </trkpt>
      <trkpt lat="47.33411" lon="-2.4354">
        <ele>46</ele>
        <time>2023-11-01T23:35:13Z</time>
      </trkpt>
      <trkpt lat="47.33407" lon="-2.43572">
        <ele>46</ele>
        <time>2023-11-01T23:35:43Z</time>
      </trkpt>
      <trkpt lat="47.33363" lon="-2.43679">
        <ele>47</ele>
        <time>2023-11-01T23:37:36Z</time>
      </trkpt>
      <trkpt lat="47.33344" lon="-2.43685">
        <ele>47</ele>
        <time>2023-11-01T23:38:02Z</time>
      </trkpt>
      <trkpt lat="47.33331" lon="-2.43703">
        <ele>47</ele>
        <time>2023-11-01T23:38:26Z</time>
      </trkpt>
      <trkpt lat="47.33334" lon="-2.43736">
        <ele>46</ele>
        <time>2023-11-01T23:38:56Z</time>
      </trkpt>
      <trkpt lat="47.33318" lon="-2.43752">
        <ele>46</ele>
        <time>2023-11-01T23:39:22Z</time>
      </trkpt>
      <trkpt lat="47.33201" lon="-2.43786">
        <ele>48</ele>
        <time>2023-11-01T23:42:01Z</time>
      </trkpt>
      <trkpt lat="47.33198" lon="-2.43816">
        <ele>47</ele>
        <time>2023-11-01T23:42:28Z</time>
      </trkpt>
      <trkpt lat="47.33206" lon="-2.43842">
        <ele>47</ele>
        <time>2023-11-01T23:42:54Z</time>
      </trkpt>
      <trkpt lat="47.33217" lon="-2.43865">
        <ele>47</ele>
        <time>2023-11-01T23:43:20Z</time>
      </trkpt>
      <trkpt lat="47.33235" lon="-2.43882">
        <ele>47</ele>
        <time>2023-11-01T23:43:48Z</time>
      </trkpt>
      <trkpt lat="47.33254" lon="-2.4389">
        <ele>48</ele>
        <time>2023-11-01T23:44:14Z</time>
      </trkpt>
      <trkpt lat="47.3329" lon="-2.43914">
        <ele>48</ele>
        <time>2023-11-01T23:45:07Z</time>
      </trkpt>
      <trkpt lat="47.33309" lon="-2.43922">
        <ele>48</ele>
        <time>2023-11-01T23:45:33Z</time>
      </trkpt>
      <trkpt lat="47.33326" lon="-2.43934">
        <ele>48</ele>
        <time>2023-11-01T23:45:59Z</time>
      </trkpt>
      <trkpt lat="47.33342" lon="-2.43953">
        <ele>48</ele>
        <time>2023-11-01T23:46:26Z</time>
      </trkpt>
      <trkpt lat="47.33396" lon="-2.44006">
        <ele>48</ele>
        <time>2023-11-01T23:47:53Z</time>
      </trkpt>
      <trkpt lat="47.33427" lon="-2.4404">
        <ele>48</ele>
        <time>2023-11-01T23:48:44Z</time>
      </trkpt>
      <trkpt lat="47.33477" lon="-2.44083">
        <ele>47</ele>
        <time>2023-11-01T23:50:01Z</time>
      </trkpt>
      <trkpt lat="47.33493" lon="-2.441">
        <ele>47</ele>
        <time>2023-11-01T23:50:28Z</time>
      </trkpt>
      <trkpt lat="47.33583" lon="-2.4417">
        <ele>48</ele>
        <time>2023-11-01T23:52:43Z</time>
      </trkpt>
      <trkpt lat="47.33616" lon="-2.44199">
        <ele>48</ele>
        <time>2023-11-01T23:53:35Z</time>
      </trkpt>
      <trkpt lat="47.33635" lon="-2.44212">
        <ele>49</ele>
        <time>2023-11-01T23:54:03Z</time>
      </trkpt>
      <trkpt lat="47.33703" lon="-2.44275">
        <ele>48</ele>
        <time>2023-11-01T23:55:50Z</time>
      </trkpt>
      <trkpt lat="47.3374" lon="-2.44313">
        <ele>47</ele>
        <time>2023-11-01T23:56:50Z</time>
      </trkpt>
      <trkpt lat="47.33758" lon="-2.44324">
        <ele>46</ele>
        <time>2023-11-01T23:57:16Z</time>
      </trkpt>
      <trkpt lat="47.33774" lon="-2.44338">
        <ele>46</ele>
        <time>2023-11-01T23:57:41Z</time>
      </trkpt>
      <trkpt lat="47.33791" lon="-2.44345">
        <ele>46</ele>
        <time>2023-11-01T23:58:04Z</time>
      </trkpt>
      <trkpt lat="47.33812" lon="-2.44341">
        <ele>47</ele>
        <time>2023-11-01T23:58:33Z</time>
      </trkpt>
      <trkpt lat="47.33834" lon="-2.44343">
        <ele>47</ele>
        <time>2023-11-01T23:59:02Z</time>
      </trkpt>
      <trkpt lat="47.33854" lon="-2.44348">
        <ele>46</ele>
        <time>2023-11-01T23:59:29Z</time>
      </trkpt>
      <trkpt lat="47.33875" lon="-2.44347">
        <ele>45</ele>
        <time>2023-11-01T23:59:57Z</time>
      </trkpt>
      <trkpt lat="47.33895" lon="-2.4435">
        <ele>44</ele>
        <time>2023-11-02T00:00:24Z</time>
      </trkpt>
      <trkpt lat="47.33972" lon="-2.44391">
        <ele>42</ele>
        <time>2023-11-02T00:02:13Z</time>
      </trkpt>
      <trkpt lat="47.33993" lon="-2.44397">
        <ele>42</ele>
        <time>2023-11-02T00:02:42Z</time>
      </trkpt>
      <trkpt lat="47.3403" lon="-2.44426">
        <ele>42</ele>
        <time>2023-11-02T00:03:38Z</time>
      </trkpt>
      <trkpt lat="47.34044" lon="-2.44449">
        <ele>42</ele>
        <time>2023-11-02T00:04:06Z</time>
      </trkpt>
      <trkpt lat="47.34047" lon="-2.44478">
        <ele>42</ele>
        <time>2023-11-02T00:04:32Z</time>
      </trkpt>
      <trkpt lat="47.34054" lon="-2.44592">
        <ele>42</ele>
        <time>2023-11-02T00:06:16Z</time>
      </trkpt>
      <trkpt lat="47.3405" lon="-2.4465">
        <ele>42</ele>
        <time>2023-11-02T00:07:08Z</time>
      </trkpt>
      <trkpt lat="47.3404" lon="-2.44735">
        <ele>42</ele>
        <time>2023-11-02T00:08:26Z</time>
      </trkpt>
      <trkpt lat="47.34019" lon="-2.44814">
        <ele>43</ele>
        <time>2023-11-02T00:09:43Z</time>
      </trkpt>
      <trkpt lat="47.34001" lon="-2.44864">
        <ele>44</ele>
        <time>2023-11-02T00:10:34Z</time>
      </trkpt>
      <trkpt lat="47.33988" lon="-2.44922">
        <ele>45</ele>
        <time>2023-11-02T00:11:30Z</time>
      </trkpt>
      <trkpt lat="47.33985" lon="-2.44951">
        <ele>45</ele>
        <time>2023-11-02T00:11:56Z</time>
      </trkpt>
      <trkpt lat="47.33986" lon="-2.4498">
        <ele>45</ele>
        <time>2023-11-02T00:12:22Z</time>
      </trkpt>
      <trkpt lat="47.34004" lon="-2.45062">
        <ele>46</ele>
        <time>2023-11-02T00:13:40Z</time>
      </trkpt>
      <trkpt lat="47.34018" lon="-2.45114">
        <ele>46</ele>
        <time>2023-11-02T00:14:31Z</time>
      </trkpt>
      <trkpt lat="47.34028" lon="-2.4514">
        <ele>46</ele>
        <time>2023-11-02T00:14:58Z</time>
      </trkpt>
      <trkpt lat="47.34057" lon="-2.45247">
        <ele>47</ele>
        <time>2023-11-02T00:16:42Z</time>
      </trkpt>
      <trkpt lat="47.34076" lon="-2.4525">
        <ele>47</ele>
        <time>2023-11-02T00:17:08Z</time>
      </trkpt>
      <trkpt lat="47.34144" lon="-2.45202">
        <ele>46</ele>
        <time>2023-11-02T00:18:48Z</time>
      </trkpt>
      <trkpt lat="47.34179" lon="-2.45173">
        <ele>46</ele>
        <time>2023-11-02T00:19:42Z</time>
      </trkpt>
      <trkpt lat="47.34251" lon="-2.4512">
        <ele>45</ele>
        <time>2023-11-02T00:21:29Z</time>
      </trkpt>
      <trkpt lat="47.34269" lon="-2.45109">
        <ele>45</ele>
        <time>2023-11-02T00:21:55Z</time>
      </trkpt>
      <trkpt lat="47.34321" lon="-2.45066">
        <ele>46</ele>
        <time>2023-11-02T00:23:15Z</time>
      </trkpt>
      <trkpt lat="47.34382" lon="-2.44992">
        <ele>47</ele>
        <time>2023-11-02T00:25:00Z</time>
      </trkpt>
      <trkpt lat="47.34401" lon="-2.44987">
        <ele>46</ele>
        <time>2023-11-02T00:25:26Z</time>
      </trkpt>
      <trkpt lat="47.34433" lon="-2.4506">
        <ele>45</ele>
        <time>2023-11-02T00:26:44Z</time>
      </trkpt>
      <trkpt lat="47.3447" lon="-2.45132">
        <ele>43</ele>
        <time>2023-11-02T00:28:06Z</time>
      </trkpt>
      <trkpt lat="47.34514" lon="-2.45184">
        <ele>42</ele>
        <time>2023-11-02T00:29:21Z</time>
      </trkpt>
      <trkpt lat="47.34541" lon="-2.45227">
        <ele>42</ele>
        <time>2023-11-02T00:30:14Z</time>
      </trkpt>
      <trkpt lat="47.3457" lon="-2.45266">
        <ele>43</ele>
        <time>2023-11-02T00:31:07Z</time>
      </trkpt>
      <trkpt lat="47.34595" lon="-2.45309">
        <ele>43</ele>
        <time>2023-11-02T00:31:58Z</time>
      </trkpt>
      <trkpt lat="47.34633" lon="-2.45414">
        <ele>41</ele>
        <time>2023-11-02T00:33:46Z</time>
      </trkpt>
      <trkpt lat="47.34643" lon="-2.45436">
        <ele>42</ele>
        <time>2023-11-02T00:34:10Z</time>
      </trkpt>
      <trkpt lat="47.34681" lon="-2.45545">
        <ele>43</ele>
        <time>2023-11-02T00:36:00Z</time>
      </trkpt>
      <trkpt lat="47.34701" lon="-2.45594">
        <ele>44</ele>
        <time>2023-11-02T00:36:52Z</time>
      </trkpt>
      <trkpt lat="47.34747" lon="-2.45689">
        <ele>43</ele>
        <time>2023-11-02T00:38:38Z</time>
      </trkpt>
      <trkpt lat="47.34757" lon="-2.45715">
        <ele>43</ele>
        <time>2023-11-02T00:39:05Z</time>
      </trkpt>
      <trkpt lat="47.3478" lon="-2.45797">
        <ele>42</ele>
        <time>2023-11-02T00:40:25Z</time>
      </trkpt>
      <trkpt lat="47.34784" lon="-2.45859">
        <ele>42</ele>
        <time>2023-11-02T00:41:21Z</time>
      </trkpt>
      <trkpt lat="47.3479" lon="-2.45884">
        <ele>41</ele>
        <time>2023-11-02T00:41:45Z</time>
      </trkpt>
      <trkpt lat="47.34795" lon="-2.45942">
        <ele>39</ele>
        <time>2023-11-02T00:42:38Z</time>
      </trkpt>
      <trkpt lat="47.34817" lon="-2.46085">
        <ele>36</ele>
        <time>2023-11-02T00:44:51Z</time>
      </trkpt>
      <trkpt lat="47.34816" lon="-2.46146">
        <ele>37</ele>
        <time>2023-11-02T00:45:46Z</time>
      </trkpt>
      <trkpt lat="47.34822" lon="-2.46232">
        <ele>38</ele>
        <time>2023-11-02T00:47:04Z</time>
      </trkpt>
      <trkpt lat="47.34815" lon="-2.46261">
        <ele>38</ele>
        <time>2023-11-02T00:47:32Z</time>
      </trkpt>
      <trkpt lat="47.34734" lon="-2.46276">
        <ele>37</ele>
        <time>2023-11-02T00:49:21Z</time>
      </trkpt>
      <trkpt lat="47.34596" lon="-2.46329">
        <ele>39</ele>
        <time>2023-11-02T00:52:31Z</time>
      </trkpt>
      <trkpt lat="47.34578" lon="-2.4634">
        <ele>39</ele>
        <time>2023-11-02T00:52:57Z</time>
      </trkpt>
      <trkpt lat="47.34528" lon="-2.46389">
        <ele>41</ele>
        <time>2023-11-02T00:54:17Z</time>
      </trkpt>
      <trkpt lat="47.34469" lon="-2.46416">
        <ele>42</ele>
        <time>2023-11-02T00:55:40Z</time>
      </trkpt>
      <trkpt lat="47.3445" lon="-2.46427">
        <ele>42</ele>
        <time>2023-11-02T00:56:07Z</time>
      </trkpt>
      <trkpt lat="47.34431" lon="-2.46432">
        <ele>41</ele>
        <time>2023-11-02T00:56:33Z</time>
      </trkpt>
      <trkpt lat="47.34371" lon="-2.46463">
        <ele>42</ele>
        <time>2023-11-02T00:57:57Z</time>
      </trkpt>
      <trkpt lat="47.34333" lon="-2.46475">
        <ele>42</ele>
        <time>2023-11-02T00:58:49Z</time>
      </trkpt>
      <trkpt lat="47.34294" lon="-2.46484">
        <ele>42</ele>
        <time>2023-11-02T00:59:42Z</time>
      </trkpt>
      <trkpt lat="47.34135" lon="-2.46493">
        <ele>42</ele>
        <time>2023-11-02T01:03:14Z</time>
      </trkpt>
      <trkpt lat="47.34097" lon="-2.46491">
        <ele>43</ele>
        <time>2023-11-02T01:04:05Z</time>
      </trkpt>
      <trkpt lat="47.34078" lon="-2.46495">
        <ele>43</ele>
        <time>2023-11-02T01:04:31Z</time>
      </trkpt>
      <trkpt lat="47.34061" lon="-2.46502">
        <ele>43</ele>
        <time>2023-11-02T01:04:54Z</time>
      </trkpt>
      <trkpt lat="47.3402" lon="-2.46529">
        <ele>44</ele>
        <time>2023-11-02T01:05:54Z</time>
      </trkpt>
      <trkpt lat="47.33983" lon="-2.46559">
        <ele>44</ele>
        <time>2023-11-02T01:06:50Z</time>
      </trkpt>
      <trkpt lat="47.33964" lon="-2.46569">
        <ele>44</ele>
        <time>2023-11-02T01:07:17Z</time>
      </trkpt>
      <trkpt lat="47.33947" lon="-2.46582">
        <ele>45</ele>
        <time>2023-11-02T01:07:43Z</time>
      </trkpt>
      <trkpt lat="47.33914" lon="-2.46614">
        <ele>45</ele>
        <time>2023-11-02T01:08:36Z</time>
      </trkpt>
      <trkpt lat="47.33882" lon="-2.4665">
        <ele>45</ele>
        <time>2023-11-02T01:09:29Z</time>
      </trkpt>
      <trkpt lat="47.33864" lon="-2.46665">
        <ele>45</ele>
        <time>2023-11-02T01:09:57Z</time>
      </trkpt>
      <trkpt lat="47.33809" lon="-2.46698">
        <ele>44</ele>
        <time>2023-11-02T01:11:16Z</time>
      </trkpt>
      <trkpt lat="47.3379" lon="-2.46703">
        <ele>44</ele>
        <time>2023-11-02T01:11:42Z</time>
      </trkpt>
      <trkpt lat="47.3377" lon="-2.46703">
        <ele>44</ele>
        <time>2023-11-02T01:12:09Z</time>
      </trkpt>
      <trkpt lat="47.33752" lon="-2.46694">
        <ele>45</ele>
        <time>2023-11-02T01:12:34Z</time>
      </trkpt>
      <trkpt lat="47.3373" lon="-2.46691">
        <ele>44</ele>
        <time>2023-11-02T01:13:03Z</time>
      </trkpt>
      <trkpt lat="47.33712" lon="-2.4668">
        <ele>44</ele>
        <time>2023-11-02T01:13:29Z</time>
      </trkpt>
      <trkpt lat="47.33702" lon="-2.46704">
        <ele>43</ele>
        <time>2023-11-02T01:13:55Z</time>
      </trkpt>
      <trkpt lat="47.33684" lon="-2.46716">
        <ele>43</ele>
        <time>2023-11-02T01:14:21Z</time>
      </trkpt>
      <trkpt lat="47.33664" lon="-2.46719">
        <ele>42</ele>
        <time>2023-11-02T01:14:48Z</time>
      </trkpt>
      <trkpt lat="47.33648" lon="-2.46732">
        <ele>41</ele>
        <time>2023-11-02T01:15:12Z</time>
      </trkpt>
      <trkpt lat="47.33629" lon="-2.46743">
        <ele>39</ele>
        <time>2023-11-02T01:15:40Z</time>
      </trkpt>
      <trkpt lat="47.33631" lon="-2.46772">
        <ele>38</ele>
        <time>2023-11-02T01:16:06Z</time>
      </trkpt>
      <trkpt lat="47.33645" lon="-2.46793">
        <ele>39</ele>
        <time>2023-11-02T01:16:33Z</time>
      </trkpt>
      <trkpt lat="47.33661" lon="-2.46815">
        <ele>39</ele>
        <time>2023-11-02T01:17:02Z</time>
      </trkpt>
      <trkpt lat="47.33682" lon="-2.46817">
        <ele>40</ele>
        <time>2023-11-02T01:17:30Z</time>
      </trkpt>
      <trkpt lat="47.33743" lon="-2.46903">
        <ele>40</ele>
        <time>2023-11-02T01:19:23Z</time>
      </trkpt>
      <trkpt lat="47.3375" lon="-2.46931">
        <ele>39</ele>
        <time>2023-11-02T01:19:50Z</time>
      </trkpt>
      <trkpt lat="47.33748" lon="-2.4696">
        <ele>38</ele>
        <time>2023-11-02T01:20:16Z</time>
      </trkpt>
      <trkpt lat="47.33753" lon="-2.47052">
        <ele>35</ele>
        <time>2023-11-02T01:21:39Z</time>
      </trkpt>
      <trkpt lat="47.33776" lon="-2.4717">
        <ele>34</ele>
        <time>2023-11-02T01:23:30Z</time>
      </trkpt>
      <trkpt lat="47.33779" lon="-2.47199">
        <ele>34</ele>
        <time>2023-11-02T01:23:57Z</time>
      </trkpt>
      <trkpt lat="47.33784" lon="-2.47293">
        <ele>32</ele>
        <time>2023-11-02T01:25:22Z</time>
      </trkpt>
      <trkpt lat="47.33783" lon="-2.47325">
        <ele>31</ele>
        <time>2023-11-02T01:25:51Z</time>
      </trkpt>
      <trkpt lat="47.33779" lon="-2.47383">
        <ele>29</ele>
        <time>2023-11-02T01:26:44Z</time>
      </trkpt>
      <trkpt lat="47.33768" lon="-2.4747">
        <ele>27</ele>
        <time>2023-11-02T01:28:04Z</time>
      </trkpt>
      <trkpt lat="47.33753" lon="-2.47526">
        <ele>25</ele>
        <time>2023-11-02T01:28:58Z</time>
      </trkpt>
      <trkpt lat="47.33741" lon="-2.47583">
        <ele>24</ele>
        <time>2023-11-02T01:29:52Z</time>
      </trkpt>
      <trkpt lat="47.33738" lon="-2.4761">
        <ele>23</ele>
        <time>2023-11-02T01:30:17Z</time>
      </trkpt>
      <trkpt lat="47.33722" lon="-2.47624">
        <ele>22</ele>
        <time>2023-11-02T01:30:42Z</time>
      </trkpt>
      <trkpt lat="47.33702" lon="-2.4762">
        <ele>22</ele>
        <time>2023-11-02T01:31:09Z</time>
      </trkpt>
      <trkpt lat="47.3368" lon="-2.47624">
        <ele>22</ele>
        <time>2023-11-02T01:31:38Z</time>
      </trkpt>
      <trkpt lat="47.33628" lon="-2.47661">
        <ele>21</ele>
        <time>2023-11-02T01:32:55Z</time>
      </trkpt>
      <trkpt lat="47.33592" lon="-2.47693">
        <ele>21</ele>
        <time>2023-11-02T01:33:52Z</time>
      </trkpt>
      <trkpt lat="47.33574" lon="-2.47699">
        <ele>21</ele>
        <time>2023-11-02T01:34:16Z</time>
      </trkpt>
      <trkpt lat="47.33534" lon="-2.47676">
        <ele>20</ele>
        <time>2023-11-02T01:35:13Z</time>
      </trkpt>
      <trkpt lat="47.33519" lon="-2.47659">
        <ele>20</ele>
        <time>2023-11-02T01:35:39Z</time>
      </trkpt>
      <trkpt lat="47.33498" lon="-2.47615">
        <ele>22</ele>
        <time>2023-11-02T01:36:27Z</time>
      </trkpt>
      <trkpt lat="47.3348" lon="-2.476">
        <ele>21</ele>
        <time>2023-11-02T01:36:55Z</time>
      </trkpt>
      <trkpt lat="47.33467" lon="-2.4758">
        <ele>21</ele>
        <time>2023-11-02T01:37:20Z</time>
      </trkpt>
      <trkpt lat="47.33435" lon="-2.47514">
        <ele>20</ele>
        <time>2023-11-02T01:38:33Z</time>
      </trkpt>
      <trkpt lat="47.33426" lon="-2.4748">
        <ele>20</ele>
        <time>2023-11-02T01:39:06Z</time>
      </trkpt>
      <trkpt lat="47.33415" lon="-2.4745">
        <ele>20</ele>
        <time>2023-11-02T01:39:37Z</time>
      </trkpt>
      <trkpt lat="47.33412" lon="-2.47422">
        <ele>21</ele>
        <time>2023-11-02T01:40:03Z</time>
      </trkpt>
      <trkpt lat="47.33385" lon="-2.47307">
        <ele>21</ele>
        <time>2023-11-02T01:41:53Z</time>
      </trkpt>
      <trkpt lat="47.3338" lon="-2.47252">
        <ele>20</ele>
        <time>2023-11-02T01:42:43Z</time>
      </trkpt>
      <trkpt lat="47.33367" lon="-2.47172">
        <ele>19</ele>
        <time>2023-11-02T01:43:58Z</time>
      </trkpt>
      <trkpt lat="47.33365" lon="-2.47145">
        <ele>19</ele>
        <time>2023-11-02T01:44:22Z</time>
      </trkpt>
      <trkpt lat="47.33349" lon="-2.47084">
        <ele>17</ele>
        <time>2023-11-02T01:45:21Z</time>
      </trkpt>
      <trkpt lat="47.33331" lon="-2.46971">
        <ele>17</ele>
        <time>2023-11-02T01:47:06Z</time>
      </trkpt>
      <trkpt lat="47.33317" lon="-2.46921">
        <ele>20</ele>
        <time>2023-11-02T01:47:55Z</time>
      </trkpt>
      <trkpt lat="47.33306" lon="-2.46867">
        <ele>22</ele>
        <time>2023-11-02T01:48:46Z</time>
      </trkpt>
      <trkpt lat="47.33286" lon="-2.46815">
        <ele>24</ele>
        <time>2023-11-02T01:49:40Z</time>
      </trkpt>
      <trkpt lat="47.33273" lon="-2.46789">
        <ele>24</ele>
        <time>2023-11-02T01:50:10Z</time>
      </trkpt>
      <trkpt lat="47.33254" lon="-2.46784">
        <ele>23</ele>
        <time>2023-11-02T01:50:35Z</time>
      </trkpt>
      <trkpt lat="47.33232" lon="-2.46793">
        <ele>22</ele>
        <time>2023-11-02T01:51:06Z</time>
      </trkpt>
      <trkpt lat="47.3321" lon="-2.46787">
        <ele>21</ele>
        <time>2023-11-02T01:51:36Z</time>
      </trkpt>
      <trkpt lat="47.33174" lon="-2.4675">
        <ele>20</ele>
        <time>2023-11-02T01:52:34Z</time>
      </trkpt>
      <trkpt lat="47.33145" lon="-2.46708">
        <ele>19</ele>
        <time>2023-11-02T01:53:28Z</time>
      </trkpt>
      <trkpt lat="47.33137" lon="-2.46684">
        <ele>19</ele>
        <time>2023-11-02T01:53:53Z</time>
      </trkpt>
      <trkpt lat="47.33123" lon="-2.46666">
        <ele>19</ele>
        <time>2023-11-02T01:54:17Z</time>
      </trkpt>
      <trkpt lat="47.33098" lon="-2.46622">
        <ele>18</ele>
        <time>2023-11-02T01:55:09Z</time>
      </trkpt>
      <trkpt lat="47.33082" lon="-2.46562">
        <ele>18</ele>
        <time>2023-11-02T01:56:08Z</time>
      </trkpt>
      <trkpt lat="47.33077" lon="-2.46533">
        <ele>18</ele>
        <time>2023-11-02T01:56:35Z</time>
      </trkpt>
      <trkpt lat="47.33013" lon="-2.46546">
        <ele>12</ele>
        <time>2023-11-02T01:58:01Z</time>
      </trkpt>
      <trkpt lat="47.32994" lon="-2.46556">
        <ele>11</ele>
        <time>2023-11-02T01:58:28Z</time>
      </trkpt>
      <trkpt lat="47.32974" lon="-2.46563">
        <ele>10</ele>
        <time>2023-11-02T01:58:55Z</time>
      </trkpt>
      <trkpt lat="47.3296" lon="-2.46543">
        <ele>10</ele>
        <time>2023-11-02T01:59:21Z</time>
      </trkpt>
      <trkpt lat="47.32963" lon="-2.4648">
        <ele>11</ele>
        <time>2023-11-02T02:00:18Z</time>
      </trkpt>
      <trkpt lat="47.32962" lon="-2.46448">
        <ele>13</ele>
        <time>2023-11-02T02:00:47Z</time>
      </trkpt>
      <trkpt lat="47.32966" lon="-2.46386">
        <ele>17</ele>
        <time>2023-11-02T02:01:44Z</time>
      </trkpt>
      <trkpt lat="47.32953" lon="-2.46324">
        <ele>21</ele>
        <time>2023-11-02T02:02:42Z</time>
      </trkpt>
      <trkpt lat="47.32929" lon="-2.46235">
        <ele>23</ele>
        <time>2023-11-02T02:04:09Z</time>
      </trkpt>
      <trkpt lat="47.32902" lon="-2.46158">
        <ele>24</ele>
        <time>2023-11-02T02:05:27Z</time>
      </trkpt>
      <trkpt lat="47.32883" lon="-2.46156">
        <ele>23</ele>
        <time>2023-11-02T02:05:53Z</time>
      </trkpt>
      <trkpt lat="47.32825" lon="-2.4619">
        <ele>18</ele>
        <time>2023-11-02T02:07:16Z</time>
      </trkpt>
      <trkpt lat="47.32807" lon="-2.46194">
        <ele>16</ele>
        <time>2023-11-02T02:07:40Z</time>
      </trkpt>
      <trkpt lat="47.32787" lon="-2.46179">
        <ele>15</ele>
        <time>2023-11-02T02:08:10Z</time>
      </trkpt>
      <trkpt lat="47.32762" lon="-2.46134">
        <ele>14</ele>
        <time>2023-11-02T02:09:03Z</time>
      </trkpt>
      <trkpt lat="47.32758" lon="-2.46107">
        <ele>14</ele>
        <time>2023-11-02T02:09:28Z</time>
      </trkpt>
      <trkpt lat="47.32742" lon="-2.46084">
        <ele>13</ele>
        <time>2023-11-02T02:09:58Z</time>
      </trkpt>
      <trkpt lat="47.32696" lon="-2.46031">
        <ele>10</ele>
        <time>2023-11-02T02:11:16Z</time>
      </trkpt>
      <trkpt lat="47.32667" lon="-2.4599">
        <ele>9</ele>
        <time>2023-11-02T02:12:09Z</time>
      </trkpt>
      <trkpt lat="47.3265" lon="-2.4597">
        <ele>9</ele>
        <time>2023-11-02T02:12:38Z</time>
      </trkpt>
      <trkpt lat="47.32633" lon="-2.45957">
        <ele>9</ele>
        <time>2023-11-02T02:13:04Z</time>
      </trkpt>
      <trkpt lat="47.32606" lon="-2.45911">
        <ele>10</ele>
        <time>2023-11-02T02:13:59Z</time>
      </trkpt>
      <trkpt lat="47.32577" lon="-2.45875">
        <ele>9</ele>
        <time>2023-11-02T02:14:49Z</time>
      </trkpt>
      <trkpt lat="47.32528" lon="-2.45791">
        <ele>8</ele>
        <time>2023-11-02T02:16:30Z</time>
      </trkpt>
      <trkpt lat="47.32513" lon="-2.45775">
        <ele>8</ele>
        <time>2023-11-02T02:16:54Z</time>
      </trkpt>
      <trkpt lat="47.32499" lon="-2.45752">
        <ele>8</ele>
        <time>2023-11-02T02:17:22Z</time>
      </trkpt>
      <trkpt lat="47.32488" lon="-2.45727">
        <ele>8</ele>
        <time>2023-11-02T02:17:49Z</time>
      </trkpt>
      <trkpt lat="47.32435" lon="-2.45639">
        <ele>9</ele>
        <time>2023-11-02T02:19:36Z</time>
      </trkpt>
      <trkpt lat="47.32413" lon="-2.4559">
        <ele>10</ele>
        <time>2023-11-02T02:20:29Z</time>
      </trkpt>
      <trkpt lat="47.32399" lon="-2.45573">
        <ele>10</ele>
        <time>2023-11-02T02:20:53Z</time>
      </trkpt>
      <trkpt lat="47.32378" lon="-2.45527">
        <ele>10</ele>
        <time>2023-11-02T02:21:43Z</time>
      </trkpt>
      <trkpt lat="47.32364" lon="-2.45509">
        <ele>10</ele>
        <time>2023-11-02T02:22:08Z</time>
      </trkpt>
      <trkpt lat="47.32327" lon="-2.45446">
        <ele>10</ele>
        <time>2023-11-02T02:23:24Z</time>
      </trkpt>
      <trkpt lat="47.32318" lon="-2.4542">
        <ele>10</ele>
        <time>2023-11-02T02:23:50Z</time>
      </trkpt>
      <trkpt lat="47.3232" lon="-2.45391">
        <ele>11</ele>
        <time>2023-11-02T02:24:16Z</time>
      </trkpt>
      <trkpt lat="47.32314" lon="-2.45364">
        <ele>11</ele>
        <time>2023-11-02T02:24:42Z</time>
      </trkpt>
      <trkpt lat="47.32313" lon="-2.45304">
        <ele>12</ele>
        <time>2023-11-02T02:25:36Z</time>
      </trkpt>
      <trkpt lat="47.32298" lon="-2.45252">
        <ele>12</ele>
        <time>2023-11-02T02:26:27Z</time>
      </trkpt>
      <trkpt lat="47.32275" lon="-2.45202">
        <ele>12</ele>
        <time>2023-11-02T02:27:22Z</time>
      </trkpt>
      <trkpt lat="47.32265" lon="-2.45174">
        <ele>12</ele>
        <time>2023-11-02T02:27:51Z</time>
      </trkpt>
      <trkpt lat="47.32261" lon="-2.45146">
        <ele>13</ele>
        <time>2023-11-02T02:28:17Z</time>
      </trkpt>
      <trkpt lat="47.32235" lon="-2.45075">
        <ele>14</ele>
        <time>2023-11-02T02:29:30Z</time>
      </trkpt>
      <trkpt lat="47.32199" lon="-2.45004">
        <ele>15</ele>
        <time>2023-11-02T02:30:50Z</time>
      </trkpt>
      <trkpt lat="47.32186" lon="-2.44984">
        <ele>14</ele>
        <time>2023-11-02T02:31:15Z</time>
      </trkpt>
      <trkpt lat="47.32172" lon="-2.44966">
        <ele>13</ele>
        <time>2023-11-02T02:31:40Z</time>
      </trkpt>
      <trkpt lat="47.32139" lon="-2.44936">
        <ele>12</ele>
        <time>2023-11-02T02:32:31Z</time>
      </trkpt>
      <trkpt lat="47.32124" lon="-2.44919">
        <ele>11</ele>
        <time>2023-11-02T02:32:57Z</time>
      </trkpt>
      <trkpt lat="47.32082" lon="-2.44821">
        <ele>11</ele>
        <time>2023-11-02T02:34:41Z</time>
      </trkpt>
      <trkpt lat="47.32073" lon="-2.44791">
        <ele>11</ele>
        <time>2023-11-02T02:35:11Z</time>
      </trkpt>
      <trkpt lat="47.32046" lon="-2.4475">
        <ele>10</ele>
        <time>2023-11-02T02:36:03Z</time>
      </trkpt>
      <trkpt lat="47.32032" lon="-2.44723">
        <ele>10</ele>
        <time>2023-11-02T02:36:34Z</time>
      </trkpt>
      <trkpt lat="47.32003" lon="-2.44686">
        <ele>8</ele>
        <time>2023-11-02T02:37:25Z</time>
      </trkpt>
      <trkpt lat="47.3199" lon="-2.44665">
        <ele>8</ele>
        <time>2023-11-02T02:37:51Z</time>
      </trkpt>
      <trkpt lat="47.31912" lon="-2.44575">
        <ele>7</ele>
        <time>2023-11-02T02:40:03Z</time>
      </trkpt>
      <trkpt lat="47.31902" lon="-2.4455">
        <ele>6</ele>
        <time>2023-11-02T02:40:29Z</time>
      </trkpt>
      <trkpt lat="47.31962" lon="-2.44405">
        <ele>7</ele>
        <time>2023-11-02T02:43:03Z</time>
      </trkpt>
      <trkpt lat="47.31971" lon="-2.44377">
        <ele>7</ele>
        <time>2023-11-02T02:43:31Z</time>
      </trkpt>
      <trkpt lat="47.32013" lon="-2.44318">
        <ele>11</ele>
        <time>2023-11-02T02:44:48Z</time>
      </trkpt>
      <trkpt lat="47.32053" lon="-2.44254">
        <ele>15</ele>
        <time>2023-11-02T02:46:07Z</time>
      </trkpt>
      <trkpt lat="47.32124" lon="-2.44157">
        <ele>21</ele>
        <time>2023-11-02T02:48:16Z</time>
      </trkpt>
      <trkpt lat="47.32172" lon="-2.44101">
        <ele>26</ele>
        <time>2023-11-02T02:49:38Z</time>
      </trkpt>
      <trkpt lat="47.32203" lon="-2.44069">
        <ele>28</ele>
        <time>2023-11-02T02:50:28Z</time>
      </trkpt>
      <trkpt lat="47.32219" lon="-2.44056">
        <ele>29</ele>
        <time>2023-11-02T02:50:52Z</time>
      </trkpt>
      <trkpt lat="47.3221" lon="-2.44033">
        <ele>29</ele>
        <time>2023-11-02T02:51:16Z</time>
      </trkpt>
      <trkpt lat="47.3223" lon="-2.44044">
        <ele>30</ele>
        <time>2023-11-02T02:51:45Z</time>
      </trkpt>
      <trkpt lat="47.3225" lon="-2.44036">
        <ele>31</ele>
        <time>2023-11-02T02:52:13Z</time>
      </trkpt>
      <trkpt lat="47.32299" lon="-2.43989">
        <ele>34</ele>
        <time>2023-11-02T02:53:31Z</time>
      </trkpt>
      <trkpt lat="47.32311" lon="-2.43968">
        <ele>34</ele>
        <time>2023-11-02T02:53:55Z</time>
      </trkpt>
      <trkpt lat="47.32342" lon="-2.43827">
        <ele>35</ele>
        <time>2023-11-02T02:56:10Z</time>
      </trkpt>
      <trkpt lat="47.32368" lon="-2.43751">
        <ele>37</ele>
        <time>2023-11-02T02:57:27Z</time>
      </trkpt>
      <trkpt lat="47.3238" lon="-2.43697">
        <ele>38</ele>
        <time>2023-11-02T02:58:18Z</time>
      </trkpt>
      <trkpt lat="47.32386" lon="-2.43636">
        <ele>39</ele>
        <time>2023-11-02T02:59:14Z</time>
      </trkpt>
      <trkpt lat="47.324" lon="-2.4358">
        <ele>40</ele>
        <time>2023-11-02T03:00:08Z</time>
      </trkpt>
      <trkpt lat="47.3242" lon="-2.43532">
        <ele>39</ele>
        <time>2023-11-02T03:00:59Z</time>
      </trkpt>
      <trkpt lat="47.32433" lon="-2.43514">
        <ele>39</ele>
        <time>2023-11-02T03:01:22Z</time>
      </trkpt>
      <trkpt lat="47.32482" lon="-2.43469">
        <ele>40</ele>
        <time>2023-11-02T03:02:39Z</time>
      </trkpt>
      <trkpt lat="47.32497" lon="-2.43451">
        <ele>41</ele>
        <time>2023-11-02T03:03:05Z</time>
      </trkpt>
      <trkpt lat="47.32483" lon="-2.43394">
        <ele>39</ele>
        <time>2023-11-02T03:04:00Z</time>
      </trkpt>
      <trkpt lat="47.32455" lon="-2.43355">
        <ele>39</ele>
        <time>2023-11-02T03:04:52Z</time>
      </trkpt>
      <trkpt lat="47.32469" lon="-2.43377">
        <ele>39</ele>
        <time>2023-11-02T03:05:19Z</time>
      </trkpt>
      <trkpt lat="47.32487" lon="-2.43398">
        <ele>40</ele>
        <time>2023-11-02T03:05:49Z</time>
      </trkpt>
      <trkpt lat="47.32507" lon="-2.43404">
        <ele>40</ele>
        <time>2023-11-02T03:06:17Z</time>
      </trkpt>
      <trkpt lat="47.32526" lon="-2.43403">
        <ele>40</ele>
        <time>2023-11-02T03:06:42Z</time>
      </trkpt>
      <trkpt lat="47.32534" lon="-2.43377">
        <ele>41</ele>
        <time>2023-11-02T03:07:08Z</time>
      </trkpt>
      <trkpt lat="47.32544" lon="-2.43313">
        <ele>42</ele>
        <time>2023-11-02T03:08:07Z</time>
      </trkpt>
      <trkpt lat="47.32556" lon="-2.43259">
        <ele>44</ele>
        <time>2023-11-02T03:08:59Z</time>
      </trkpt>
      <trkpt lat="47.32569" lon="-2.43236">
        <ele>45</ele>
        <time>2023-11-02T03:09:26Z</time>
      </trkpt>
      <trkpt lat="47.32583" lon="-2.43218">
        <ele>46</ele>
        <time>2023-11-02T03:09:51Z</time>
      </trkpt>
      <trkpt lat="47.3262" lon="-2.43198">
        <ele>47</ele>
        <time>2023-11-02T03:10:43Z</time>
      </trkpt>
      <trkpt lat="47.32637" lon="-2.43183">
        <ele>48</ele>
        <time>2023-11-02T03:11:10Z</time>
      </trkpt>
      <trkpt lat="47.32614" lon="-2.43095">
        <ele>49</ele>
        <time>2023-11-02T03:12:35Z</time>
      </trkpt>
      <trkpt lat="47.32623" lon="-2.43068">
        <ele>50</ele>
        <time>2023-11-02T03:13:02Z</time>
      </trkpt>
      <trkpt lat="47.3262" lon="-2.43039">
        <ele>50</ele>
        <time>2023-11-02T03:13:29Z</time>
      </trkpt>
      <trkpt lat="47.32625" lon="-2.4301">
        <ele>51</ele>
        <time>2023-11-02T03:13:56Z</time>
      </trkpt>
      <trkpt lat="47.32629" lon="-2.42926">
        <ele>51</ele>
        <time>2023-11-02T03:15:12Z</time>
      </trkpt>
      <trkpt lat="47.32641" lon="-2.42859">
        <ele>51</ele>
        <time>2023-11-02T03:16:15Z</time>
      </trkpt>
      <trkpt lat="47.32655" lon="-2.42802">
        <ele>50</ele>
        <time>2023-11-02T03:17:09Z</time>
      </trkpt>
      <trkpt lat="47.3268" lon="-2.4275">
        <ele>50</ele>
        <time>2023-11-02T03:18:07Z</time>
      </trkpt>
      <trkpt lat="47.32696" lon="-2.42724">
        <ele>50</ele>
        <time>2023-11-02T03:18:39Z</time>
      </trkpt>
      <trkpt lat="47.32709" lon="-2.42706">
        <ele>50</ele>
        <time>2023-11-02T03:19:03Z</time>
      </trkpt>
      <trkpt lat="47.32728" lon="-2.42693">
        <ele>50</ele>
        <time>2023-11-02T03:19:31Z</time>
      </trkpt>
      <trkpt lat="47.32747" lon="-2.42692">
        <ele>51</ele>
        <time>2023-11-02T03:19:56Z</time>
      </trkpt>
      <trkpt lat="47.32765" lon="-2.42699">
        <ele>51</ele>
        <time>2023-11-02T03:20:21Z</time>
      </trkpt>
      <trkpt lat="47.32834" lon="-2.42709">
        <ele>53</ele>
        <time>2023-11-02T03:21:53Z</time>
      </trkpt>
      <trkpt lat="47.32853" lon="-2.42714">
        <ele>53</ele>
        <time>2023-11-02T03:22:19Z</time>
      </trkpt>
      <trkpt lat="47.32872" lon="-2.42701">
        <ele>52</ele>
        <time>2023-11-02T03:22:47Z</time>
      </trkpt>
      <trkpt lat="47.32884" lon="-2.42643">
        <ele>51</ele>
        <time>2023-11-02T03:23:42Z</time>
      </trkpt>
      <trkpt lat="47.32896" lon="-2.42615">
        <ele>50</ele>
        <time>2023-11-02T03:24:12Z</time>
      </trkpt>
      <trkpt lat="47.32915" lon="-2.42618">
        <ele>50</ele>
        <time>2023-11-02T03:24:37Z</time>
      </trkpt>
      <trkpt lat="47.32953" lon="-2.42649">
        <ele>50</ele>
        <time>2023-11-02T03:25:35Z</time>
      </trkpt>
      <trkpt lat="47.32984" lon="-2.42688">
        <ele>50</ele>
        <time>2023-11-02T03:26:30Z</time>
      </trkpt>
      <trkpt lat="47.33005" lon="-2.42679">
        <ele>49</ele>
        <time>2023-11-02T03:26:59Z</time>
      </trkpt>
      <trkpt lat="47.33023" lon="-2.42667">
        <ele>49</ele>
        <time>2023-11-02T03:27:25Z</time>
      </trkpt>
      <trkpt lat="47.33041" lon="-2.42664">
        <ele>48</ele>
        <time>2023-11-02T03:27:49Z</time>
      </trkpt>
      <trkpt lat="47.33076" lon="-2.42635">
        <ele>48</ele>
        <time>2023-11-02T03:28:43Z</time>
      </trkpt>
      <trkpt lat="47.33123" lon="-2.42575">
        <ele>46</ele>
        <time>2023-11-02T03:30:06Z</time>
      </trkpt>
      <trkpt lat="47.33143" lon="-2.42554">
        <ele>46</ele>
        <time>2023-11-02T03:30:39Z</time>
      </trkpt>
    </trkseg>
  </trk>
</gpx>